createdAt,value
2019-06-15T00:00:17.912Z,1007.41
2019-06-15T00:01:17.879Z,1007.40
2019-06-15T00:02:17.867Z,1007.36
2019-06-15T00:03:17.848Z,1007.36
2019-06-15T00:04:17.851Z,1007.33
2019-06-15T00:05:17.819Z,1007.26
2019-06-15T00:06:17.813Z,1007.27
2019-06-15T00:07:17.786Z,1007.23
2019-06-15T00:08:17.781Z,1007.23
2019-06-15T00:09:17.763Z,1007.27
2019-06-15T00:10:17.752Z,1007.21
2019-06-15T00:11:17.727Z,1007.17
2019-06-15T00:12:17.713Z,1007.11
2019-06-15T00:13:17.693Z,1007.08
2019-06-15T00:14:17.676Z,1007.00
2019-06-15T00:15:17.665Z,1006.86
2019-06-15T00:16:17.657Z,1006.70
2019-06-15T00:17:17.631Z,1006.47
2019-06-15T00:18:17.618Z,1006.27
2019-06-15T00:19:17.600Z,1006.07
2019-06-15T00:20:17.586Z,1005.96
2019-06-15T00:21:17.571Z,1005.90
2019-06-15T00:22:17.552Z,1005.82
2019-06-15T00:23:17.544Z,1005.89
2019-06-15T00:24:17.521Z,1005.90
2019-06-15T00:25:17.506Z,1005.96
2019-06-15T00:26:17.494Z,1005.97
2019-06-15T00:27:17.483Z,1005.94
2019-06-15T00:28:17.457Z,1005.90
2019-06-15T00:29:17.447Z,1005.86
2019-06-15T00:30:17.431Z,1005.84
2019-06-15T00:31:17.416Z,1005.82
2019-06-15T00:32:17.396Z,1005.82
2019-06-15T00:33:17.378Z,1005.85
2019-06-15T00:34:17.371Z,1005.88
2019-06-15T00:35:17.352Z,1005.94
2019-06-15T00:36:17.332Z,1005.91
2019-06-15T00:37:17.320Z,1005.97
2019-06-15T00:38:17.299Z,1005.98
2019-06-15T00:39:17.283Z,1005.94
2019-06-15T00:40:17.274Z,1005.90
2019-06-15T00:41:17.252Z,1005.85
2019-06-15T00:42:17.236Z,1005.79
2019-06-15T00:43:17.219Z,1005.80
2019-06-15T00:44:17.202Z,1005.72
2019-06-15T00:45:17.186Z,1005.67
2019-06-15T00:46:17.171Z,1005.64
2019-06-15T00:47:17.156Z,1005.63
2019-06-15T00:48:17.142Z,1005.60
2019-06-15T00:49:17.130Z,1005.55
2019-06-15T00:50:17.106Z,1005.53
2019-06-15T00:51:17.098Z,1005.48
2019-06-15T00:52:17.078Z,1005.45
2019-06-15T00:53:17.058Z,1005.36
2019-06-15T00:54:17.042Z,1005.31
2019-06-15T00:55:17.033Z,1005.30
2019-06-15T00:56:17.014Z,1005.28
2019-06-15T00:57:16.993Z,1005.27
2019-06-15T00:58:16.978Z,1005.25
2019-06-15T00:59:16.976Z,1005.24
2019-06-15T01:00:16.962Z,1005.22
2019-06-15T01:01:16.934Z,1005.21
2019-06-15T01:02:16.910Z,1005.22
2019-06-15T01:03:16.900Z,1005.24
2019-06-15T01:04:16.887Z,1005.24
2019-06-15T01:05:16.863Z,1005.25
2019-06-15T01:06:16.845Z,1005.25
2019-06-15T01:07:16.829Z,1005.26
2019-06-15T01:08:16.817Z,1005.27
2019-06-15T01:09:16.809Z,1005.27
2019-06-15T01:10:16.783Z,1005.27
2019-06-15T01:11:16.769Z,1005.21
2019-06-15T01:12:16.762Z,1005.14
2019-06-15T01:13:16.733Z,1005.11
2019-06-15T01:14:16.717Z,1005.08
2019-06-15T01:15:16.700Z,1005.07
2019-06-15T01:16:16.688Z,1005.05
2019-06-15T01:17:16.671Z,1005.03
2019-06-15T01:18:16.656Z,1004.97
2019-06-15T01:19:16.634Z,1004.90
2019-06-15T01:20:16.619Z,1004.95
2019-06-15T01:21:16.600Z,1004.93
2019-06-15T01:22:16.585Z,1004.94
2019-06-15T01:23:16.571Z,1004.97
2019-06-15T01:24:16.560Z,1004.97
2019-06-15T01:25:16.539Z,1004.95
2019-06-15T01:26:16.520Z,1004.99
2019-06-15T01:27:16.504Z,1005.02
2019-06-15T01:28:16.491Z,1005.06
2019-06-15T01:29:16.477Z,1005.10
2019-06-15T01:30:16.453Z,1005.09
2019-06-15T01:31:16.439Z,1005.13
2019-06-15T01:32:16.442Z,1005.11
2019-06-15T01:33:16.410Z,1005.10
2019-06-15T01:34:16.388Z,1005.15
2019-06-15T01:35:16.369Z,1005.12
2019-06-15T01:36:16.353Z,1005.05
2019-06-15T01:37:16.337Z,1004.98
2019-06-15T01:38:16.324Z,1004.88
2019-06-15T01:39:16.307Z,1004.87
2019-06-15T01:40:16.291Z,1004.84
2019-06-15T01:41:16.278Z,1004.80
2019-06-15T01:42:16.260Z,1004.81
2019-06-15T01:43:16.244Z,1004.71
2019-06-15T01:44:16.228Z,1004.66
2019-06-15T01:45:16.207Z,1004.69
2019-06-15T01:46:16.191Z,1004.60
2019-06-15T01:47:16.177Z,1004.53
2019-06-15T01:48:16.162Z,1004.50
2019-06-15T01:49:16.141Z,1004.40
2019-06-15T01:50:16.131Z,1004.25
2019-06-15T01:51:16.110Z,1004.18
2019-06-15T01:52:16.092Z,1004.08
2019-06-15T01:53:16.078Z,1004.01
2019-06-15T01:54:16.067Z,1003.89
2019-06-15T01:55:20.886Z,1003.86
2019-06-15T01:56:16.027Z,1003.82
2019-06-15T01:57:16.028Z,1003.86
2019-06-15T01:58:15.998Z,1003.89
2019-06-15T01:59:15.976Z,1003.91
2019-06-15T02:00:15.960Z,1003.94
2019-06-15T02:01:15.952Z,1003.91
2019-06-15T02:02:15.929Z,1003.89
2019-06-15T02:03:15.915Z,1003.90
2019-06-15T02:04:15.893Z,1003.86
2019-06-15T02:05:15.876Z,1003.78
2019-06-15T02:06:15.860Z,1003.72
2019-06-15T02:07:15.850Z,1003.65
2019-06-15T02:08:15.826Z,1003.60
2019-06-15T02:09:15.807Z,1003.58
2019-06-15T02:10:15.792Z,1003.60
2019-06-15T02:11:15.775Z,1003.54
2019-06-15T02:12:15.775Z,1003.53
2019-06-15T02:13:15.745Z,1003.50
2019-06-15T02:14:15.726Z,1003.49
2019-06-15T02:15:15.716Z,1003.50
2019-06-15T02:16:15.693Z,1003.46
2019-06-15T02:17:15.687Z,1003.42
2019-06-15T02:18:15.674Z,1003.40
2019-06-15T02:19:15.651Z,1003.40
2019-06-15T02:20:15.660Z,1003.39
2019-06-15T02:21:15.668Z,1003.36
2019-06-15T02:22:15.596Z,1003.32
2019-06-15T02:23:15.578Z,1003.26
2019-06-15T02:24:15.559Z,1003.20
2019-06-15T02:25:15.548Z,1003.16
2019-06-15T02:26:15.524Z,1003.10
2019-06-15T02:27:15.511Z,1003.06
2019-06-15T02:28:15.500Z,1003.02
2019-06-15T02:29:15.481Z,1003.01
2019-06-15T02:30:15.465Z,1003.00
2019-06-15T02:31:15.440Z,1002.98
2019-06-15T02:32:15.424Z,1003.01
2019-06-15T02:33:15.410Z,1002.97
2019-06-15T02:34:15.389Z,1002.94
2019-06-15T02:35:15.380Z,1002.91
2019-06-15T02:36:15.356Z,1002.90
2019-06-15T02:37:15.343Z,1002.86
2019-06-15T02:38:15.322Z,1002.91
2019-06-15T02:39:15.306Z,1002.95
2019-06-15T02:40:15.291Z,1003.00
2019-06-15T02:41:15.274Z,1003.02
2019-06-15T02:42:15.255Z,1003.03
2019-06-15T02:43:15.237Z,1003.04
2019-06-15T02:44:15.223Z,1003.04
2019-06-15T02:45:15.204Z,1003.05
2019-06-15T02:46:15.187Z,1003.08
2019-06-15T02:47:15.170Z,1003.08
2019-06-15T02:48:15.152Z,1003.02
2019-06-15T02:49:15.135Z,1002.95
2019-06-15T02:50:15.120Z,1002.92
2019-06-15T02:51:15.102Z,1002.92
2019-06-15T02:52:15.086Z,1002.91
2019-06-15T02:53:15.067Z,1002.90
2019-06-15T02:54:15.050Z,1002.87
2019-06-15T02:55:15.042Z,1002.87
2019-06-15T02:56:15.018Z,1002.89
2019-06-15T02:57:15.002Z,1002.89
2019-06-15T02:58:14.984Z,1002.90
2019-06-15T02:59:14.967Z,1002.93
2019-06-15T03:00:14.950Z,1002.93
2019-06-15T03:01:14.934Z,1002.97
2019-06-15T03:02:14.920Z,1003.02
2019-06-15T03:03:14.899Z,1003.02
2019-06-15T03:04:14.883Z,1003.05
2019-06-15T03:05:14.867Z,1003.09
2019-06-15T03:06:14.853Z,1003.09
2019-06-15T03:07:14.883Z,1003.09
2019-06-15T03:08:14.820Z,1003.09
2019-06-15T03:09:14.800Z,1003.12
2019-06-15T03:10:14.781Z,1003.12
2019-06-15T03:11:14.765Z,1003.19
2019-06-15T03:12:14.749Z,1003.19
2019-06-15T03:13:14.739Z,1003.20
2019-06-15T03:14:14.727Z,1003.16
2019-06-15T03:15:14.702Z,1003.18
2019-06-15T03:16:14.682Z,1003.23
2019-06-15T03:17:14.665Z,1003.27
2019-06-15T03:18:14.653Z,1003.32
2019-06-15T03:19:14.635Z,1003.34
2019-06-15T03:20:14.616Z,1003.30
2019-06-15T03:21:14.599Z,1003.34
2019-06-15T03:22:14.591Z,1003.32
2019-06-15T03:23:14.567Z,1003.29
2019-06-15T03:24:14.570Z,1003.37
2019-06-15T03:25:14.550Z,1003.40
2019-06-15T03:26:14.519Z,1003.44
2019-06-15T03:27:14.501Z,1003.42
2019-06-15T03:28:14.487Z,1003.40
2019-06-15T03:29:14.466Z,1003.39
2019-06-15T03:30:14.454Z,1003.38
2019-06-15T03:31:14.435Z,1003.39
2019-06-15T03:32:14.425Z,1003.38
2019-06-15T03:33:14.403Z,1003.35
2019-06-15T03:34:14.384Z,1003.35
2019-06-15T03:35:14.374Z,1003.37
2019-06-15T03:36:14.431Z,1003.35
2019-06-15T03:37:14.339Z,1003.36
2019-06-15T03:38:14.326Z,1003.39
2019-06-15T03:39:14.302Z,1003.40
2019-06-15T03:40:14.296Z,1003.40
2019-06-15T03:41:14.270Z,1003.45
2019-06-15T03:42:14.251Z,1003.55
2019-06-15T03:43:14.235Z,1003.60
2019-06-15T03:44:14.221Z,1003.65
2019-06-15T03:45:14.207Z,1003.66
2019-06-15T03:46:14.188Z,1003.70
2019-06-15T03:47:14.174Z,1003.74
2019-06-15T03:48:14.210Z,1003.73
2019-06-15T03:49:14.137Z,1003.73
2019-06-15T03:50:14.122Z,1003.73
2019-06-15T03:51:14.110Z,1003.76
2019-06-15T03:52:14.090Z,1003.72
2019-06-15T03:53:14.073Z,1003.71
2019-06-15T03:54:14.054Z,1003.64
2019-06-15T03:55:14.035Z,1003.62
2019-06-15T03:56:21.578Z,1003.61
2019-06-15T03:57:14.004Z,1003.60
2019-06-15T03:58:13.988Z,1003.52
2019-06-15T03:59:13.979Z,1003.53
2019-06-15T04:00:13.952Z,1003.46
2019-06-15T04:01:13.934Z,1003.44
2019-06-15T04:02:13.920Z,1003.37
2019-06-15T04:03:13.903Z,1003.31
2019-06-15T04:04:13.886Z,1003.26
2019-06-15T04:05:13.872Z,1003.27
2019-06-15T04:06:13.852Z,1003.22
2019-06-15T04:07:13.838Z,1003.19
2019-06-15T04:08:13.818Z,1003.19
2019-06-15T04:09:13.817Z,1003.19
2019-06-15T04:10:13.786Z,1003.14
2019-06-15T04:11:13.770Z,1003.20
2019-06-15T04:12:13.752Z,1003.18
2019-06-15T04:13:13.738Z,1003.19
2019-06-15T04:14:13.722Z,1003.23
2019-06-15T04:15:13.703Z,1003.27
2019-06-15T04:16:13.686Z,1003.28
2019-06-15T04:17:13.696Z,1003.29
2019-06-15T04:18:13.653Z,1003.32
2019-06-15T04:19:13.637Z,1003.30
2019-06-15T04:20:13.621Z,1003.32
2019-06-15T04:21:13.604Z,1003.30
2019-06-15T04:22:13.594Z,1003.30
2019-06-15T04:23:13.567Z,1003.25
2019-06-15T04:24:13.555Z,1003.20
2019-06-15T04:25:13.536Z,1003.22
2019-06-15T04:26:13.523Z,1003.17
2019-06-15T04:27:13.560Z,1003.16
2019-06-15T04:28:13.489Z,1003.14
2019-06-15T04:29:13.467Z,1003.15
2019-06-15T04:30:13.452Z,1003.11
2019-06-15T04:31:13.448Z,1003.10
2019-06-15T04:32:13.420Z,1003.07
2019-06-15T04:33:13.406Z,1002.99
2019-06-15T04:34:13.385Z,1002.98
2019-06-15T04:35:13.373Z,1002.94
2019-06-15T04:36:13.351Z,1002.91
2019-06-15T04:37:13.339Z,1002.93
2019-06-15T04:38:13.319Z,1002.95
2019-06-15T04:39:13.306Z,1002.92
2019-06-15T04:40:13.287Z,1002.90
2019-06-15T04:41:13.280Z,1002.92
2019-06-15T04:42:13.259Z,1002.89
2019-06-15T04:43:13.239Z,1002.86
2019-06-15T04:44:13.225Z,1002.79
2019-06-15T04:45:13.204Z,1002.77
2019-06-15T04:46:13.192Z,1002.76
2019-06-15T04:47:13.171Z,1002.74
2019-06-15T04:48:13.155Z,1002.74
2019-06-15T04:49:13.142Z,1002.71
2019-06-15T04:50:13.125Z,1002.71
2019-06-15T04:51:13.125Z,1002.70
2019-06-15T04:52:13.115Z,1002.69
2019-06-15T04:53:14.883Z,1002.69
2019-06-15T04:54:13.055Z,1002.64
2019-06-15T04:55:13.039Z,1002.64
2019-06-15T04:56:13.022Z,1002.62
2019-06-15T04:57:13.006Z,1002.58
2019-06-15T04:58:12.989Z,1002.66
2019-06-15T04:59:12.972Z,1002.68
2019-06-15T05:00:12.969Z,1002.73
2019-06-15T05:01:12.947Z,1002.75
2019-06-15T05:02:12.931Z,1002.74
2019-06-15T05:03:12.907Z,1002.80
2019-06-15T05:04:12.896Z,1002.82
2019-06-15T05:05:12.877Z,1002.85
2019-06-15T05:06:12.861Z,1002.83
2019-06-15T05:07:12.840Z,1002.85
2019-06-15T05:08:12.827Z,1002.82
2019-06-15T05:09:12.877Z,1002.81
2019-06-15T05:10:12.812Z,1002.83
2019-06-15T05:11:12.788Z,1002.80
2019-06-15T05:12:12.776Z,1002.79
2019-06-15T05:13:12.746Z,1002.77
2019-06-15T05:14:12.729Z,1002.81
2019-06-15T05:15:12.710Z,1002.87
2019-06-15T05:16:12.700Z,1002.87
2019-06-15T05:17:12.686Z,1002.93
2019-06-15T05:18:12.660Z,1002.99
2019-06-15T05:19:12.653Z,1003.04
2019-06-15T05:20:12.629Z,1003.11
2019-06-15T05:21:12.617Z,1003.21
2019-06-15T05:22:12.607Z,1003.34
2019-06-15T05:23:12.585Z,1003.43
2019-06-15T05:24:12.562Z,1003.53
2019-06-15T05:25:12.548Z,1003.56
2019-06-15T05:26:12.530Z,1003.61
2019-06-15T05:27:12.514Z,1003.68
2019-06-15T05:28:12.499Z,1003.72
2019-06-15T05:29:12.483Z,1003.74
2019-06-15T05:30:12.471Z,1003.78
2019-06-15T05:31:12.451Z,1003.82
2019-06-15T05:32:12.442Z,1003.79
2019-06-15T05:33:12.415Z,1003.77
2019-06-15T05:34:12.400Z,1003.73
2019-06-15T05:35:12.494Z,1003.71
2019-06-15T05:36:12.371Z,1003.65
2019-06-15T05:37:12.349Z,1003.55
2019-06-15T05:38:12.335Z,1003.51
2019-06-15T05:39:12.315Z,1003.51
2019-06-15T05:40:12.299Z,1003.45
2019-06-15T05:41:15.031Z,1003.46
2019-06-15T05:42:12.266Z,1003.46
2019-06-15T05:43:12.276Z,1003.48
2019-06-15T05:44:12.244Z,1003.53
2019-06-15T05:45:12.215Z,1003.56
2019-06-15T05:46:12.203Z,1003.60
2019-06-15T05:47:12.184Z,1003.63
2019-06-15T05:48:12.170Z,1003.67
2019-06-15T05:49:12.150Z,1003.64
2019-06-15T05:50:12.136Z,1003.68
2019-06-15T05:51:12.116Z,1003.70
2019-06-15T05:52:12.111Z,1003.68
2019-06-15T05:53:12.082Z,1003.69
2019-06-15T05:54:12.067Z,1003.73
2019-06-15T05:55:12.057Z,1003.75
2019-06-15T05:56:12.038Z,1003.72
2019-06-15T05:57:21.115Z,1003.70
2019-06-15T05:58:11.999Z,1003.70
2019-06-15T05:59:11.984Z,1003.70
2019-06-15T06:00:11.986Z,1003.75
2019-06-15T06:01:11.962Z,1003.74
2019-06-15T06:02:11.938Z,1003.76
2019-06-15T06:03:11.919Z,1003.73
2019-06-15T06:04:11.908Z,1003.72
2019-06-15T06:05:11.886Z,1003.74
2019-06-15T06:06:11.869Z,1003.77
2019-06-15T06:07:11.850Z,1003.77
2019-06-15T06:08:11.833Z,1003.78
2019-06-15T06:09:11.817Z,1003.77
2019-06-15T06:10:11.816Z,1003.80
2019-06-15T06:11:11.791Z,1003.77
2019-06-15T06:12:11.773Z,1003.79
2019-06-15T06:13:11.763Z,1003.79
2019-06-15T06:14:11.741Z,1003.84
2019-06-15T06:15:11.720Z,1003.81
2019-06-15T06:16:11.706Z,1003.83
2019-06-15T06:17:11.692Z,1003.87
2019-06-15T06:18:11.669Z,1003.87
2019-06-15T06:19:11.665Z,1003.95
2019-06-15T06:20:11.633Z,1003.96
2019-06-15T06:21:11.619Z,1003.97
2019-06-15T06:22:11.603Z,1004.00
2019-06-15T06:23:11.580Z,1004.06
2019-06-15T06:24:11.579Z,1004.11
2019-06-15T06:25:11.549Z,1004.12
2019-06-15T06:26:11.540Z,1004.13
2019-06-15T06:27:11.516Z,1004.18
2019-06-15T06:28:11.503Z,1004.20
2019-06-15T06:29:11.480Z,1004.19
2019-06-15T06:30:11.472Z,1004.23
2019-06-15T06:31:11.460Z,1004.24
2019-06-15T06:32:11.431Z,1004.20
2019-06-15T06:33:11.416Z,1004.15
2019-06-15T06:34:11.403Z,1004.06
2019-06-15T06:35:11.382Z,1004.00
2019-06-15T06:36:11.365Z,1004.02
2019-06-15T06:37:11.347Z,1004.03
2019-06-15T06:38:11.331Z,1004.02
2019-06-15T06:39:11.314Z,1004.09
2019-06-15T06:40:11.302Z,1004.10
2019-06-15T06:41:13.467Z,1004.09
2019-06-15T06:42:11.265Z,1004.17
2019-06-15T06:43:11.249Z,1004.10
2019-06-15T06:44:11.231Z,1004.11
2019-06-15T06:45:11.212Z,1004.06
2019-06-15T06:46:11.197Z,1004.05
2019-06-15T06:47:11.181Z,1004.03
2019-06-15T06:48:11.163Z,1004.07
2019-06-15T06:49:11.146Z,1004.11
2019-06-15T06:50:11.129Z,1004.09
2019-06-15T06:51:11.120Z,1004.08
2019-06-15T06:52:11.098Z,1004.12
2019-06-15T06:53:11.078Z,1004.12
2019-06-15T06:54:11.066Z,1004.13
2019-06-15T06:55:11.050Z,1004.13
2019-06-15T06:56:11.038Z,1004.08
2019-06-15T06:57:11.012Z,1004.03
2019-06-15T06:58:10.995Z,1004.05
2019-06-15T06:59:10.981Z,1004.07
2019-06-15T07:00:11.002Z,1004.11
2019-06-15T07:01:10.952Z,1004.20
2019-06-15T07:02:10.928Z,1004.28
2019-06-15T07:03:10.915Z,1004.29
2019-06-15T07:04:10.913Z,1004.27
2019-06-15T07:05:10.881Z,1004.31
2019-06-15T07:06:10.861Z,1004.30
2019-06-15T07:07:10.844Z,1004.33
2019-06-15T07:08:10.832Z,1004.40
2019-06-15T07:09:10.813Z,1004.38
2019-06-15T07:10:10.796Z,1004.37
2019-06-15T07:11:10.782Z,1004.40
2019-06-15T07:12:10.762Z,1004.43
2019-06-15T07:13:10.748Z,1004.37
2019-06-15T07:14:10.732Z,1004.36
2019-06-15T07:15:10.714Z,1004.35
2019-06-15T07:16:10.697Z,1004.30
2019-06-15T07:17:10.678Z,1004.31
2019-06-15T07:18:10.668Z,1004.32
2019-06-15T07:19:10.650Z,1004.37
2019-06-15T07:20:10.630Z,1004.29
2019-06-15T07:21:10.620Z,1004.30
2019-06-15T07:22:10.603Z,1004.25
2019-06-15T07:23:10.588Z,1004.24
2019-06-15T07:24:10.562Z,1004.29
2019-06-15T07:25:10.550Z,1004.23
2019-06-15T07:26:10.528Z,1004.23
2019-06-15T07:27:10.513Z,1004.26
2019-06-15T07:28:10.503Z,1004.29
2019-06-15T07:29:10.479Z,1004.26
2019-06-15T07:30:10.698Z,1004.29
2019-06-15T07:31:10.446Z,1004.30
2019-06-15T07:32:10.431Z,1004.34
2019-06-15T07:33:10.413Z,1004.32
2019-06-15T07:34:10.397Z,1004.27
2019-06-15T07:35:10.384Z,1004.30
2019-06-15T07:36:10.364Z,1004.27
2019-06-15T07:37:10.350Z,1004.32
2019-06-15T07:38:10.336Z,1004.36
2019-06-15T07:39:10.358Z,1004.41
2019-06-15T07:40:10.297Z,1004.40
2019-06-15T07:41:10.293Z,1004.42
2019-06-15T07:42:10.270Z,1004.45
2019-06-15T07:43:10.249Z,1004.45
2019-06-15T07:44:10.229Z,1004.43
2019-06-15T07:45:10.211Z,1004.42
2019-06-15T07:46:10.200Z,1004.48
2019-06-15T07:47:10.185Z,1004.47
2019-06-15T07:48:10.163Z,1004.41
2019-06-15T07:49:10.145Z,1004.40
2019-06-15T07:50:10.133Z,1004.41
2019-06-15T07:51:10.120Z,1004.50
2019-06-15T07:52:10.102Z,1004.49
2019-06-15T07:53:10.078Z,1004.54
2019-06-15T07:54:10.060Z,1004.52
2019-06-15T07:55:10.052Z,1004.59
2019-06-15T07:56:10.032Z,1004.66
2019-06-15T07:57:10.023Z,1004.69
2019-06-15T07:58:23.603Z,1004.65
2019-06-15T07:59:09.979Z,1004.69
2019-06-15T08:00:09.966Z,1004.73
2019-06-15T08:01:09.955Z,1004.77
2019-06-15T08:02:09.945Z,1004.76
2019-06-15T08:03:09.911Z,1004.85
2019-06-15T08:04:09.897Z,1004.84
2019-06-15T08:05:09.885Z,1004.85
2019-06-15T08:06:09.861Z,1004.75
2019-06-15T08:07:09.843Z,1004.82
2019-06-15T08:08:09.826Z,1004.77
2019-06-15T08:09:09.810Z,1004.79
2019-06-15T08:10:09.807Z,1004.80
2019-06-15T08:11:09.779Z,1004.80
2019-06-15T08:12:09.766Z,1004.84
2019-06-15T08:13:09.746Z,1004.89
2019-06-15T08:14:09.727Z,1004.84
2019-06-15T08:15:09.708Z,1004.86
2019-06-15T08:16:09.703Z,1004.86
2019-06-15T08:17:09.674Z,1004.90
2019-06-15T08:18:09.901Z,1004.93
2019-06-15T08:19:09.639Z,1004.98
2019-06-15T08:20:09.648Z,1005.05
2019-06-15T08:21:09.630Z,1005.07
2019-06-15T08:22:09.589Z,1005.07
2019-06-15T08:23:09.574Z,1005.08
2019-06-15T08:24:09.556Z,1005.16
2019-06-15T08:25:09.538Z,1005.19
2019-06-15T08:26:09.523Z,1005.16
2019-06-15T08:27:09.508Z,1005.14
2019-06-15T08:28:09.486Z,1005.13
2019-06-15T08:29:09.471Z,1005.15
2019-06-15T08:30:09.452Z,1005.14
2019-06-15T08:31:09.434Z,1005.15
2019-06-15T08:32:09.420Z,1005.19
2019-06-15T08:33:09.406Z,1005.21
2019-06-15T08:34:09.386Z,1005.24
2019-06-15T08:35:09.370Z,1005.24
2019-06-15T08:36:09.355Z,1005.23
2019-06-15T08:37:09.350Z,1005.26
2019-06-15T08:38:09.315Z,1005.24
2019-06-15T08:39:09.313Z,1005.28
2019-06-15T08:40:09.283Z,1005.28
2019-06-15T08:41:09.276Z,1005.26
2019-06-15T08:42:09.250Z,1005.26
2019-06-15T08:43:09.246Z,1005.24
2019-06-15T08:44:09.222Z,1005.25
2019-06-15T08:45:09.191Z,1005.26
2019-06-15T08:46:09.174Z,1005.31
2019-06-15T08:47:09.160Z,1005.30
2019-06-15T08:48:09.149Z,1005.36
2019-06-15T08:49:09.125Z,1005.34
2019-06-15T08:50:09.106Z,1005.37
2019-06-15T08:51:09.099Z,1005.39
2019-06-15T08:52:09.078Z,1005.40
2019-06-15T08:53:09.055Z,1005.42
2019-06-15T08:54:09.038Z,1005.44
2019-06-15T08:55:09.027Z,1005.50
2019-06-15T08:56:09.007Z,1005.50
2019-06-15T08:57:08.995Z,1005.48
2019-06-15T08:58:08.977Z,1005.58
2019-06-15T08:59:08.961Z,1005.54
2019-06-15T09:00:08.947Z,1005.62
2019-06-15T09:01:08.926Z,1005.67
2019-06-15T09:02:08.904Z,1005.66
2019-06-15T09:03:08.888Z,1005.67
2019-06-15T09:04:08.885Z,1005.68
2019-06-15T09:05:08.856Z,1005.69
2019-06-15T09:06:08.836Z,1005.67
2019-06-15T09:07:08.824Z,1005.67
2019-06-15T09:08:08.811Z,1005.69
2019-06-15T09:09:08.790Z,1005.72
2019-06-15T09:10:08.766Z,1005.67
2019-06-15T09:11:08.768Z,1005.67
2019-06-15T09:12:08.733Z,1005.71
2019-06-15T09:13:08.733Z,1005.73
2019-06-15T09:14:08.713Z,1005.73
2019-06-15T09:15:08.686Z,1005.78
2019-06-15T09:16:08.667Z,1005.75
2019-06-15T09:17:08.651Z,1005.81
2019-06-15T09:18:08.636Z,1005.80
2019-06-15T09:19:08.613Z,1005.84
2019-06-15T09:20:08.599Z,1005.88
2019-06-15T09:21:08.584Z,1005.88
2019-06-15T09:22:08.565Z,1005.96
2019-06-15T09:23:08.548Z,1005.93
2019-06-15T09:24:08.537Z,1005.93
2019-06-15T09:25:08.517Z,1005.94
2019-06-15T09:26:08.496Z,1005.95
2019-06-15T09:27:08.481Z,1005.98
2019-06-15T09:28:08.461Z,1005.97
2019-06-15T09:29:11.590Z,1006.02
2019-06-15T09:30:08.428Z,1006.03
2019-06-15T09:31:08.410Z,1006.07
2019-06-15T09:32:08.401Z,1006.07
2019-06-15T09:33:08.382Z,1006.04
2019-06-15T09:34:18.427Z,1006.01
2019-06-15T09:35:08.374Z,1006.02
2019-06-15T09:36:08.331Z,1005.98
2019-06-15T09:37:08.313Z,1006.01
2019-06-15T09:38:08.293Z,1006.02
2019-06-15T09:39:08.302Z,1006.07
2019-06-15T09:40:08.263Z,1006.09
2019-06-15T09:41:08.276Z,1006.09
2019-06-15T09:42:08.229Z,1006.07
2019-06-15T09:43:08.222Z,1006.07
2019-06-15T09:44:08.409Z,1006.12
2019-06-15T09:45:08.192Z,1006.09
2019-06-15T09:46:08.193Z,1006.13
2019-06-15T09:47:08.146Z,1006.17
2019-06-15T09:48:08.129Z,1006.18
2019-06-15T09:49:08.115Z,1006.23
2019-06-15T09:50:08.106Z,1006.26
2019-06-15T09:51:08.079Z,1006.25
2019-06-15T09:52:08.081Z,1006.30
2019-06-15T09:53:08.054Z,1006.24
2019-06-15T09:54:08.035Z,1006.24
2019-06-15T09:55:08.014Z,1006.21
2019-06-15T09:56:08.004Z,1006.25
2019-06-15T09:57:07.981Z,1006.25
2019-06-15T09:58:07.966Z,1006.22
2019-06-15T09:59:07.960Z,1006.19
2019-06-15T10:00:07.950Z,1006.22
2019-06-15T10:01:07.918Z,1006.23
2019-06-15T10:02:07.922Z,1006.24
2019-06-15T10:03:07.888Z,1006.26
2019-06-15T10:04:07.879Z,1006.24
2019-06-15T10:05:07.854Z,1006.25
2019-06-15T10:06:11.751Z,1006.25
2019-06-15T10:07:07.825Z,1006.23
2019-06-15T10:08:07.804Z,1006.25
2019-06-15T10:09:07.807Z,1006.22
2019-06-15T10:10:07.775Z,1006.23
2019-06-15T10:11:07.753Z,1006.26
2019-06-15T10:12:07.737Z,1006.24
2019-06-15T10:13:07.733Z,1006.30
2019-06-15T10:14:07.701Z,1006.35
2019-06-15T10:15:07.692Z,1006.33
2019-06-15T10:16:07.706Z,1006.38
2019-06-15T10:17:07.658Z,1006.37
2019-06-15T10:18:07.639Z,1006.38
2019-06-15T10:19:07.621Z,1006.34
2019-06-15T10:20:07.615Z,1006.38
2019-06-15T10:21:07.593Z,1006.37
2019-06-15T10:22:07.572Z,1006.34
2019-06-15T10:23:07.559Z,1006.34
2019-06-15T10:24:07.538Z,1006.36
2019-06-15T10:25:07.521Z,1006.32
2019-06-15T10:26:07.513Z,1006.39
2019-06-15T10:27:07.489Z,1006.41
2019-06-15T10:28:07.474Z,1006.37
2019-06-15T10:29:07.455Z,1006.40
2019-06-15T10:30:07.445Z,1006.39
2019-06-15T10:31:07.424Z,1006.44
2019-06-15T10:32:07.411Z,1006.41
2019-06-15T10:33:07.389Z,1006.43
2019-06-15T10:34:07.374Z,1006.41
2019-06-15T10:35:07.359Z,1006.42
2019-06-15T10:36:09.647Z,1006.45
2019-06-15T10:37:07.327Z,1006.46
2019-06-15T10:38:07.308Z,1006.44
2019-06-15T10:39:07.291Z,1006.49
2019-06-15T10:40:07.315Z,1006.49
2019-06-15T10:41:07.259Z,1006.46
2019-06-15T10:42:07.250Z,1006.49
2019-06-15T10:43:07.228Z,1006.49
2019-06-15T10:44:07.210Z,1006.50
2019-06-15T10:45:07.199Z,1006.53
2019-06-15T10:46:07.184Z,1006.54
2019-06-15T10:47:07.162Z,1006.54
2019-06-15T10:48:07.151Z,1006.55
2019-06-15T10:49:07.128Z,1006.55
2019-06-15T10:50:07.121Z,1006.56
2019-06-15T10:51:07.105Z,1006.58
2019-06-15T10:52:07.089Z,1006.61
2019-06-15T10:53:07.065Z,1006.62
2019-06-15T10:54:07.052Z,1006.63
2019-06-15T10:55:07.029Z,1006.70
2019-06-15T10:56:07.023Z,1006.70
2019-06-15T10:57:07.010Z,1006.71
2019-06-15T10:58:06.989Z,1006.72
2019-06-15T10:59:06.971Z,1006.72
2019-06-15T11:00:07.019Z,1006.76
2019-06-15T11:01:06.936Z,1006.71
2019-06-15T11:02:06.927Z,1006.76
2019-06-15T11:03:06.904Z,1006.82
2019-06-15T11:04:06.888Z,1006.85
2019-06-15T11:05:06.868Z,1006.95
2019-06-15T11:06:06.850Z,1007.00
2019-06-15T11:07:06.847Z,1007.11
2019-06-15T11:08:06.836Z,1007.06
2019-06-15T11:09:06.808Z,1007.14
2019-06-15T11:10:06.805Z,1007.04
2019-06-15T11:11:06.766Z,1007.05
2019-06-15T11:12:06.790Z,1007.08
2019-06-15T11:13:06.743Z,1007.05
2019-06-15T11:14:06.726Z,1007.09
2019-06-15T11:15:06.701Z,1007.13
2019-06-15T11:16:06.692Z,1007.11
2019-06-15T11:17:06.662Z,1007.11
2019-06-15T11:18:06.651Z,1007.16
2019-06-15T11:19:06.632Z,1007.16
2019-06-15T11:20:06.614Z,1007.18
2019-06-15T11:21:06.606Z,1007.18
2019-06-15T11:22:06.619Z,1007.24
2019-06-15T11:23:06.574Z,1007.22
2019-06-15T11:24:06.547Z,1007.22
2019-06-15T11:25:06.530Z,1007.21
2019-06-15T11:26:06.523Z,1007.18
2019-06-15T11:27:06.581Z,1007.22
2019-06-15T11:28:06.483Z,1007.23
2019-06-15T11:29:06.462Z,1007.29
2019-06-15T11:30:13.480Z,1007.29
2019-06-15T11:31:06.429Z,1007.29
2019-06-15T11:32:06.420Z,1007.38
2019-06-15T11:33:06.394Z,1007.37
2019-06-15T11:34:06.388Z,1007.37
2019-06-15T11:35:06.364Z,1007.41
2019-06-15T11:36:06.354Z,1007.40
2019-06-15T11:37:06.615Z,1007.56
2019-06-15T11:38:06.306Z,1007.58
2019-06-15T11:39:06.299Z,1007.54
2019-06-15T11:40:06.280Z,1007.51
2019-06-15T11:41:06.260Z,1007.50
2019-06-15T11:42:06.248Z,1007.50
2019-06-15T11:43:06.236Z,1007.48
2019-06-15T11:44:06.208Z,1007.52
2019-06-15T11:45:06.195Z,1007.52
2019-06-15T11:46:06.180Z,1007.54
2019-06-15T11:47:06.156Z,1007.54
2019-06-15T11:48:06.139Z,1007.58
2019-06-15T11:49:06.126Z,1007.56
2019-06-15T11:50:06.120Z,1007.58
2019-06-15T11:51:06.089Z,1007.59
2019-06-15T11:52:06.074Z,1007.58
2019-06-15T11:53:06.061Z,1007.56
2019-06-15T11:54:06.053Z,1007.62
2019-06-15T11:55:06.031Z,1007.63
2019-06-15T11:56:06.020Z,1007.65
2019-06-15T11:57:05.993Z,1007.55
2019-06-15T11:58:05.979Z,1007.51
2019-06-15T11:59:05.968Z,1007.55
2019-06-15T12:00:05.954Z,1007.62
2019-06-15T12:01:05.931Z,1007.61
2019-06-15T12:02:05.920Z,1007.67
2019-06-15T12:03:05.917Z,1007.69
2019-06-15T12:04:05.885Z,1007.91
2019-06-15T12:05:05.868Z,1007.82